Time;durP1;ratioP1;P1;durP2;ratioP2;P2;SDS_P1;SDS_P2;PMS_P1;PMS_P2;Temp;Humidity;BMP_temperature;BMP_pressure;BME280_temperature;BME280_humidity;BME280_pressure;Samples;Min_cycle;Max_cycle;Signal;HPM_P1;HPM_P2
2023/01/11 00:01:57;;;;;;;30.75;21.92;;;;;;;;;;4947704;29;20043;-69
2023/01/11 00:04:28;;;;;;;33.63;21.48;;;;;;;;;;4947691;29;20246;-69
2023/01/11 00:06:56;;;;;;;31.00;22.17;;;;;;;;;;4950217;29;20449;-69
2023/01/11 00:09:23;;;;;;;29.83;21.77;;;;;;;;;;4966168;28;20117;-69
2023/01/11 00:11:51;;;;;;;27.38;20.70;;;;;;;;;;4969528;28;20387;-68
2023/01/11 00:14:19;;;;;;;27.92;19.85;;;;;;;;;;4958401;28;20070;-69
2023/01/11 00:16:47;;;;;;;22.83;18.02;;;;;;;;;;4964282;28;20051;-68
2023/01/11 00:19:14;;;;;;;25.55;17.75;;;;;;;;;;4964296;28;20047;-69
2023/01/11 00:21:41;;;;;;;27.67;18.60;;;;;;;;;;4968382;28;20046;-69
2023/01/11 00:24:08;;;;;;;27.15;19.58;;;;;;;;;;4966521;28;20053;-69
2023/01/11 00:26:36;;;;;;;26.42;18.73;;;;;;;;;;4968910;28;20050;-69
2023/01/11 00:29:03;;;;;;;25.67;19.40;;;;;;;;;;4964264;28;20063;-70
2023/01/11 00:31:31;;;;;;;29.05;20.38;;;;;;;;;;4961144;28;20497;-70
2023/01/11 00:33:59;;;;;;;24.52;18.58;;;;;;;;;;4964639;28;20047;-71
2023/01/11 00:36:26;;;;;;;26.75;17.80;;;;;;;;;;4964524;28;20058;-71
2023/01/11 00:38:54;;;;;;;28.95;19.70;;;;;;;;;;4966459;28;20058;-71
2023/01/11 00:49:38;;;;;;;22.75;14.98;;;;;;;;;;4966287;28;20122;-70
2023/01/11 00:52:07;;;;;;;25.98;14.68;;;;;;;;;;4966259;28;20057;-71
2023/01/11 00:54:35;;;;;;;22.42;14.68;;;;;;;;;;4963883;28;20537;-71
2023/01/11 00:57:02;;;;;;;19.45;13.95;;;;;;;;;;4969409;28;20082;-71
2023/01/11 00:59:29;;;;;;;18.60;13.68;;;;;;;;;;4969053;28;20055;-70
2023/01/11 01:01:58;;;;;;;21.83;14.57;;;;;;;;;;4972779;28;20054;-70
2023/01/11 01:04:25;;;;;;;28.60;16.50;;;;;;;;;;4966364;28;20051;-72
2023/01/11 01:06:52;;;;;;;24.85;17.10;;;;;;;;;;4969136;28;20046;-71
2023/01/11 01:09:20;;;;;;;28.27;16.85;;;;;;;;;;4967184;28;20058;-72
2023/01/11 01:11:47;;;;;;;24.50;16.65;;;;;;;;;;4968972;28;20066;-72
2023/01/11 01:14:27;;;;;;;33.97;18.50;;;;;;;;;;4963866;28;20060;-70
2023/01/11 01:16:54;;;;;;;33.65;19.10;;;;;;;;;;4970748;28;20058;-71
2023/01/11 01:19:24;;;;;;;36.53;20.40;;;;;;;;;;4969410;28;20047;-71
2023/01/11 01:21:52;;;;;;;35.97;21.75;;;;;;;;;;4968725;28;20130;-71
2023/01/11 01:24:19;;;;;;;36.50;22.05;;;;;;;;;;4966857;28;20047;-70
2023/01/11 01:26:46;;;;;;;40.03;21.15;;;;;;;;;;4963422;28;20520;-71
2023/01/11 01:29:14;;;;;;;37.72;22.30;;;;;;;;;;4968626;28;20101;-71
2023/01/11 01:31:42;;;;;;;39.65;22.38;;;;;;;;;;4967943;28;20054;-70
2023/01/11 01:34:09;;;;;;;35.53;21.48;;;;;;;;;;4966642;28;20070;-70
2023/01/11 01:36:38;;;;;;;32.35;20.08;;;;;;;;;;4970130;28;20130;-70
2023/01/11 01:39:06;;;;;;;38.17;21.65;;;;;;;;;;4968594;28;20058;-70
2023/01/11 01:41:33;;;;;;;33.65;20.48;;;;;;;;;;4968737;28;20055;-70
2023/01/11 01:44:01;;;;;;;37.58;21.85;;;;;;;;;;4968959;28;20046;-70
2023/01/11 01:46:29;;;;;;;44.03;21.85;;;;;;;;;;4971926;28;20058;-71
2023/01/11 01:48:58;;;;;;;40.35;22.20;;;;;;;;;;4966395;28;20131;-71
2023/01/11 01:51:27;;;;;;;38.78;20.75;;;;;;;;;;4966497;28;20454;-71
2023/01/11 01:53:58;;;;;;;38.50;20.52;;;;;;;;;;4968067;28;20042;-72
2023/01/11 01:56:26;;;;;;;40.05;20.40;;;;;;;;;;4969640;28;20390;-71
2023/01/11 01:58:55;;;;;;;39.35;21.48;;;;;;;;;;4967175;28;20062;-70
2023/01/11 02:04:09;;;;;;;45.80;22.55;;;;;;;;;;4960076;28;20058;-71
2023/01/11 02:06:37;;;;;;;53.50;23.52;;;;;;;;;;4970321;28;20059;-71
2023/01/11 02:09:08;;;;;;;46.60;22.20;;;;;;;;;;4968081;28;20062;-71
2023/01/11 02:11:42;;;;;;;57.63;24.67;;;;;;;;;;4966770;28;20058;-71
2023/01/11 02:14:10;;;;;;;46.63;22.33;;;;;;;;;;4967408;28;20047;-71
2023/01/11 02:16:38;;;;;;;46.55;17.55;;;;;;;;;;4971483;28;20050;-70
2023/01/11 02:19:07;;;;;;;45.95;13.32;;;;;;;;;;4965372;28;20074;-70
2023/01/11 02:21:41;;;;;;;45.45;11.77;;;;;;;;;;4968413;28;20066;-70
2023/01/11 02:24:23;;;;;;;44.58;12.23;;;;;;;;;;4966946;28;20049;-69
2023/01/11 02:27:04;;;;;;;44.97;11.10;;;;;;;;;;4965763;28;20502;-69
2023/01/11 02:29:36;;;;;;;42.53;10.35;;;;;;;;;;4972169;28;20054;-69
2023/01/11 02:32:09;;;;;;;43.30;8.53;;;;;;;;;;4964230;28;20054;-69
2023/01/11 02:34:40;;;;;;;50.28;10.75;;;;;;;;;;4970166;28;20344;-69
2023/01/11 02:37:19;;;;;;;48.63;8.48;;;;;;;;;;4969060;28;20061;-70
2023/01/11 02:39:53;;;;;;;35.45;7.80;;;;;;;;;;4965673;28;20055;-69
2023/01/11 02:45:17;;;;;;;34.95;6.88;;;;;;;;;;4968023;28;20051;-69
2023/01/11 02:47:47;;;;;;;36.53;6.10;;;;;;;;;;4965968;28;20505;-69
2023/01/11 02:50:19;;;;;;;40.50;5.97;;;;;;;;;;4961691;28;20549;-69
2023/01/11 02:52:50;;;;;;;53.78;6.40;;;;;;;;;;4961407;28;20431;-70
2023/01/11 02:55:19;;;;;;;44.72;5.70;;;;;;;;;;4964334;28;20446;-69
2023/01/11 02:57:47;;;;;;;46.83;6.10;;;;;;;;;;4964773;28;20061;-69
2023/01/11 03:00:17;;;;;;;46.72;5.93;;;;;;;;;;4967157;28;20513;-69
2023/01/11 03:02:44;;;;;;;41.10;6.28;;;;;;;;;;4962113;28;20126;-69
2023/01/11 03:05:12;;;;;;;53.20;6.13;;;;;;;;;;4971677;28;20050;-70
2023/01/11 03:07:50;;;;;;;48.13;5.38;;;;;;;;;;4961535;28;20066;-69
2023/01/11 03:10:23;;;;;;;66.38;7.40;;;;;;;;;;4967572;28;20051;-69
2023/01/11 03:12:58;;;;;;;56.50;5.43;;;;;;;;;;4964117;28;20062;-69
2023/01/11 03:15:34;;;;;;;66.82;7.22;;;;;;;;;;4968407;28;20118;-69
2023/01/11 03:18:07;;;;;;;52.63;6.75;;;;;;;;;;4963707;28;20051;-69
2023/01/11 03:20:36;;;;;;;54.08;6.38;;;;;;;;;;4962290;28;20138;-69
2023/01/11 03:23:10;;;;;;;59.67;6.40;;;;;;;;;;4963985;28;20528;-69
2023/01/11 03:25:40;;;;;;;57.38;7.45;;;;;;;;;;4965177;28;20055;-70
2023/01/11 03:28:12;;;;;;;48.55;5.85;;;;;;;;;;4970697;28;20077;-69
2023/01/11 03:30:47;;;;;;;70.68;8.00;;;;;;;;;;4968414;28;20057;-69
2023/01/11 03:33:17;;;;;;;59.08;7.20;;;;;;;;;;4956619;28;20057;-70
2023/01/11 03:35:47;;;;;;;58.30;7.45;;;;;;;;;;4968853;28;20050;-69
2023/01/11 03:38:18;;;;;;;70.07;8.07;;;;;;;;;;4960966;28;20106;-69
2023/01/11 03:40:47;;;;;;;62.60;7.75;;;;;;;;;;4980364;28;20050;-69
2023/01/11 03:43:15;;;;;;;64.43;6.82;;;;;;;;;;4962487;28;20047;-69
2023/01/11 03:45:54;;;;;;;76.80;6.85;;;;;;;;;;4968631;28;20055;-70
2023/01/11 03:48:23;;;;;;;46.88;5.25;;;;;;;;;;4970261;28;20421;-70
2023/01/11 03:50:51;;;;;;;35.50;4.53;;;;;;;;;;4969227;28;20493;-70
2023/01/11 03:53:19;;;;;;;41.88;4.70;;;;;;;;;;4965752;28;20101;-70
2023/01/11 03:55:48;;;;;;;36.45;4.10;;;;;;;;;;4961045;28;20161;-69
2023/01/11 03:58:16;;;;;;;32.08;3.42;;;;;;;;;;4964677;28;20154;-69
2023/01/11 04:00:43;;;;;;;28.05;2.88;;;;;;;;;;4964485;28;20054;-70
2023/01/11 04:03:13;;;;;;;31.95;4.22;;;;;;;;;;4967693;28;20076;-69
2023/01/11 04:05:42;;;;;;;30.83;3.03;;;;;;;;;;4964057;28;20051;-70
2023/01/11 04:08:10;;;;;;;35.25;4.10;;;;;;;;;;4964959;28;20047;-69
2023/01/11 04:10:38;;;;;;;42.88;5.22;;;;;;;;;;4963883;28;20113;-69
2023/01/11 04:13:05;;;;;;;57.25;5.47;;;;;;;;;;4964545;28;20077;-69
2023/01/11 04:15:33;;;;;;;49.15;5.78;;;;;;;;;;4966951;28;20047;-70
2023/01/11 04:18:03;;;;;;;73.97;7.75;;;;;;;;;;4967131;28;20050;-69
2023/01/11 04:20:32;;;;;;;56.80;6.13;;;;;;;;;;4966901;28;20423;-69
2023/01/11 04:22:59;;;;;;;69.90;6.45;;;;;;;;;;4967458;28;20055;-69
2023/01/11 04:25:27;;;;;;;61.70;6.22;;;;;;;;;;4970144;28;20058;-69
2023/01/11 04:27:54;;;;;;;68.53;7.50;;;;;;;;;;4973511;28;20062;-69
2023/01/11 04:30:21;;;;;;;38.10;4.45;;;;;;;;;;4968803;28;20498;-70
2023/01/11 04:32:49;;;;;;;43.05;6.07;;;;;;;;;;4966115;28;20051;-69
2023/01/11 04:35:16;;;;;;;57.08;5.53;;;;;;;;;;4971760;28;20043;-70
2023/01/11 04:37:45;;;;;;;37.42;5.90;;;;;;;;;;4970072;28;20528;-69
2023/01/11 04:40:12;;;;;;;34.55;3.65;;;;;;;;;;4965608;28;20783;-69
2023/01/11 04:42:38;;;;;;;29.42;3.22;;;;;;;;;;4970628;28;20050;-70
2023/01/11 04:45:06;;;;;;;32.13;3.30;;;;;;;;;;4963205;28;20058;-70
2023/01/11 04:47:33;;;;;;;35.85;3.70;;;;;;;;;;4962619;28;20476;-69
2023/01/11 04:50:01;;;;;;;33.08;3.67;;;;;;;;;;4967453;28;20047;-70
2023/01/11 04:52:28;;;;;;;37.95;3.85;;;;;;;;;;4964734;28;20772;-69
2023/01/11 04:54:56;;;;;;;28.20;2.70;;;;;;;;;;4967655;28;20054;-69
2023/01/11 04:57:24;;;;;;;29.08;3.28;;;;;;;;;;4965353;28;20054;-69
2023/01/11 04:59:51;;;;;;;35.95;3.15;;;;;;;;;;4957779;28;20047;-69
2023/01/11 05:02:19;;;;;;;24.70;3.33;;;;;;;;;;4963297;28;20604;-69
2023/01/11 05:04:46;;;;;;;37.58;3.60;;;;;;;;;;4959164;28;20047;-69
2023/01/11 05:07:13;;;;;;;42.85;3.75;;;;;;;;;;4962251;28;20055;-70
2023/01/11 05:09:40;;;;;;;38.58;4.53;;;;;;;;;;4971096;28;20061;-69
2023/01/11 05:12:09;;;;;;;37.35;4.05;;;;;;;;;;4965974;28;20069;-70
2023/01/11 05:14:36;;;;;;;39.42;4.47;;;;;;;;;;4971572;28;20505;-70
2023/01/11 05:17:03;;;;;;;36.47;3.92;;;;;;;;;;4973108;28;20046;-70
2023/01/11 05:19:31;;;;;;;38.08;4.20;;;;;;;;;;4965963;28;20433;-69
2023/01/11 05:21:58;;;;;;;24.70;2.67;;;;;;;;;;4966057;28;20051;-69
2023/01/11 05:24:25;;;;;;;25.60;2.50;;;;;;;;;;4970309;28;21221;-70
2023/01/11 05:26:52;;;;;;;15.43;2.30;;;;;;;;;;4972479;28;20047;-70
2023/01/11 05:29:21;;;;;;;23.05;2.38;;;;;;;;;;4971311;28;20502;-69
2023/01/11 05:31:48;;;;;;;22.08;3.42;;;;;;;;;;4967696;28;20749;-70
2023/01/11 05:34:16;;;;;;;17.40;1.92;;;;;;;;;;4966831;28;20077;-69
2023/01/11 05:36:44;;;;;;;17.85;2.50;;;;;;;;;;4962881;28;20050;-69
2023/01/11 05:39:12;;;;;;;18.45;1.65;;;;;;;;;;4969679;28;20055;-69
2023/01/11 05:41:39;;;;;;;22.63;2.40;;;;;;;;;;4970976;28;20050;-69
2023/01/11 05:46:52;;;;;;;18.73;2.35;;;;;;;;;;4966379;28;20049;-69
2023/01/11 05:49:19;;;;;;;23.73;2.05;;;;;;;;;;4967510;28;20069;-69
2023/01/11 05:51:47;;;;;;;22.30;2.70;;;;;;;;;;4967046;28;20046;-69
2023/01/11 05:54:15;;;;;;;26.88;2.92;;;;;;;;;;4966031;28;20047;-69
2023/01/11 05:56:42;;;;;;;26.13;2.92;;;;;;;;;;4967902;28;20049;-69
2023/01/11 05:59:09;;;;;;;31.13;3.38;;;;;;;;;;4969942;28;20051;-69
2023/01/11 06:01:37;;;;;;;22.55;3.00;;;;;;;;;;4966392;28;20506;-69
2023/01/11 06:04:07;;;;;;;35.15;3.70;;;;;;;;;;4966762;28;20039;-69
2023/01/11 06:06:34;;;;;;;47.15;4.28;;;;;;;;;;4966258;28;20363;-69
2023/01/11 06:09:01;;;;;;;36.47;3.83;;;;;;;;;;4965200;28;20062;-70
2023/01/11 06:11:29;;;;;;;37.28;3.83;;;;;;;;;;4963266;28;20093;-69
2023/01/11 06:13:56;;;;;;;31.27;4.15;;;;;;;;;;4964481;28;20070;-70
2023/01/11 06:16:23;;;;;;;29.10;3.30;;;;;;;;;;4963550;28;20062;-70
2023/01/11 06:18:52;;;;;;;35.13;3.10;;;;;;;;;;4965506;28;20054;-69
2023/01/11 06:21:20;;;;;;;21.50;2.67;;;;;;;;;;4969409;28;20059;-70
2023/01/11 06:23:49;;;;;;;20.23;2.20;;;;;;;;;;4971729;28;20751;-69
2023/01/11 06:26:17;;;;;;;16.92;2.53;;;;;;;;;;4968754;28;20497;-70
2023/01/11 06:28:45;;;;;;;21.08;2.53;;;;;;;;;;4966656;28;20047;-70
2023/01/11 06:31:12;;;;;;;15.98;1.65;;;;;;;;;;4972020;28;20501;-69
2023/01/11 06:33:40;;;;;;;12.20;1.58;;;;;;;;;;4965514;28;20398;-69
2023/01/11 06:36:08;;;;;;;16.70;1.77;;;;;;;;;;4964691;28;20047;-69
2023/01/11 06:38:36;;;;;;;16.67;1.90;;;;;;;;;;4971112;28;20057;-70
2023/01/11 06:41:04;;;;;;;15.18;2.15;;;;;;;;;;4970208;28;20526;-69
2023/01/11 06:43:32;;;;;;;20.35;1.70;;;;;;;;;;4964606;28;20051;-69
2023/01/11 06:45:59;;;;;;;23.17;2.35;;;;;;;;;;4962544;28;20051;-69
2023/01/11 06:48:27;;;;;;;24.38;2.42;;;;;;;;;;4968525;28;20058;-70
2023/01/11 06:50:55;;;;;;;22.70;2.80;;;;;;;;;;4966780;28;20055;-70
2023/01/11 06:53:22;;;;;;;19.33;2.28;;;;;;;;;;4968051;28;20046;-70
2023/01/11 06:55:52;;;;;;;30.20;2.75;;;;;;;;;;4967135;28;20047;-70
2023/01/11 06:58:19;;;;;;;24.20;2.55;;;;;;;;;;4960956;28;20414;-70
2023/01/11 07:00:46;;;;;;;30.77;3.88;;;;;;;;;;4963192;28;20051;-70
2023/01/11 07:03:13;;;;;;;26.23;2.92;;;;;;;;;;4961236;28;20059;-70
2023/01/11 07:05:42;;;;;;;23.67;2.58;;;;;;;;;;4961732;28;20051;-69
2023/01/11 07:08:10;;;;;;;29.45;2.70;;;;;;;;;;4957739;28;20181;-69
2023/01/11 07:10:37;;;;;;;19.25;2.67;;;;;;;;;;4960643;28;20051;-69
2023/01/11 07:13:06;;;;;;;17.60;2.30;;;;;;;;;;4966403;28;20059;-69
2023/01/11 07:15:33;;;;;;;20.85;2.30;;;;;;;;;;4964392;28;20066;-70
2023/01/11 07:18:01;;;;;;;17.17;2.30;;;;;;;;;;4964766;28;20118;-69
2023/01/11 07:20:29;;;;;;;18.02;2.00;;;;;;;;;;4966970;28;20557;-69
2023/01/11 07:23:00;;;;;;;16.58;2.38;;;;;;;;;;4967250;28;20050;-69
2023/01/11 07:25:28;;;;;;;20.85;2.05;;;;;;;;;;4967431;28;20483;-69
2023/01/11 07:27:58;;;;;;;21.75;2.55;;;;;;;;;;4968206;28;20414;-69
2023/01/11 07:30:28;;;;;;;19.80;2.40;;;;;;;;;;4968878;28;20077;-70
2023/01/11 07:32:55;;;;;;;17.00;2.50;;;;;;;;;;4963857;28;20089;-69
2023/01/11 07:35:22;;;;;;;18.48;2.40;;;;;;;;;;4958878;28;20062;-70
2023/01/11 07:37:50;;;;;;;14.00;1.90;;;;;;;;;;4960175;28;20050;-71
2023/01/11 07:40:17;;;;;;;19.17;3.00;;;;;;;;;;4961707;28;20073;-70
2023/01/11 07:45:35;;;;;;;17.45;2.45;;;;;;;;;;4963234;28;20517;-71
2023/01/11 07:48:02;;;;;;;24.98;2.40;;;;;;;;;;4964359;28;20066;-71
2023/01/11 07:50:29;;;;;;;18.75;2.08;;;;;;;;;;4964777;28;20058;-70
2023/01/11 07:52:57;;;;;;;20.52;2.85;;;;;;;;;;4962263;28;20105;-71
2023/01/11 07:55:24;;;;;;;24.75;2.80;;;;;;;;;;4962500;28;20055;-71
2023/01/11 07:57:51;;;;;;;22.80;2.35;;;;;;;;;;4962506;28;20051;-70
2023/01/11 08:00:19;;;;;;;22.02;2.28;;;;;;;;;;4966422;28;20057;-71
2023/01/11 08:02:51;;;;;;;22.45;3.10;;;;;;;;;;4964244;28;20043;-71
2023/01/11 08:05:18;;;;;;;27.33;3.42;;;;;;;;;;4967148;28;20093;-70
2023/01/11 08:07:45;;;;;;;22.23;3.10;;;;;;;;;;4965886;28;20422;-70
2023/01/11 08:10:13;;;;;;;17.25;2.00;;;;;;;;;;4963369;28;20139;-70
2023/01/11 08:15:28;;;;;;;18.52;2.63;;;;;;;;;;4966038;28;20046;-70
2023/01/11 08:17:57;;;;;;;25.58;2.90;;;;;;;;;;4966454;28;20070;-70
2023/01/11 08:20:25;;;;;;;17.25;2.17;;;;;;;;;;4966437;28;20059;-70
2023/01/11 08:22:53;;;;;;;25.27;2.45;;;;;;;;;;4957636;28;20474;-70
2023/01/11 08:25:20;;;;;;;31.77;3.33;;;;;;;;;;4968103;28;20050;-70
2023/01/11 08:27:48;;;;;;;29.02;2.67;;;;;;;;;;4957775;28;20044;-70
2023/01/11 08:30:15;;;;;;;22.45;2.65;;;;;;;;;;4956269;28;20050;-70
2023/01/11 08:32:42;;;;;;;24.20;2.95;;;;;;;;;;4963331;28;20081;-70
2023/01/11 08:35:11;;;;;;;23.65;2.45;;;;;;;;;;4958748;28;20066;-69
2023/01/11 08:37:38;;;;;;;22.38;2.35;;;;;;;;;;4960404;28;20062;-69
2023/01/11 08:40:06;;;;;;;24.00;2.67;;;;;;;;;;4961330;28;20135;-69
2023/01/11 08:42:33;;;;;;;24.15;2.72;;;;;;;;;;4966101;28;20055;-69
2023/01/11 08:45:01;;;;;;;20.98;2.63;;;;;;;;;;4962246;28;20087;-69
2023/01/11 08:47:28;;;;;;;21.45;2.25;;;;;;;;;;4958349;28;20051;-69
2023/01/11 08:49:55;;;;;;;19.83;1.90;;;;;;;;;;4962787;28;20044;-69
2023/01/11 08:52:24;;;;;;;20.83;2.38;;;;;;;;;;4955664;28;20410;-69
2023/01/11 08:54:51;;;;;;;20.08;2.58;;;;;;;;;;4963900;28;20043;-69
2023/01/11 08:57:18;;;;;;;21.17;2.10;;;;;;;;;;4967058;28;20046;-69
2023/01/11 08:59:45;;;;;;;19.17;2.58;;;;;;;;;;4966001;28;20398;-70
2023/01/11 09:02:13;;;;;;;24.65;2.25;;;;;;;;;;4961253;28;20050;-69
2023/01/11 09:04:40;;;;;;;23.65;2.55;;;;;;;;;;4956124;28;20043;-70
2023/01/11 09:07:07;;;;;;;22.35;2.42;;;;;;;;;;4967140;28;20086;-70
2023/01/11 09:09:36;;;;;;;25.02;2.97;;;;;;;;;;4966349;28;20055;-69
2023/01/11 09:12:03;;;;;;;26.50;2.90;;;;;;;;;;4964112;28;20079;-70
2023/01/11 09:14:31;;;;;;;25.25;2.28;;;;;;;;;;4964496;28;20065;-70
2023/01/11 09:16:59;;;;;;;21.80;2.42;;;;;;;;;;4962273;28;20047;-70
2023/01/11 09:19:26;;;;;;;19.27;2.10;;;;;;;;;;4963770;28;20073;-69
2023/01/11 09:21:56;;;;;;;18.15;2.58;;;;;;;;;;4967245;28;20047;-69
2023/01/11 09:24:24;;;;;;;22.70;1.90;;;;;;;;;;4969566;28;20051;-70
2023/01/11 09:26:52;;;;;;;22.52;2.40;;;;;;;;;;4959586;28;20043;-69
2023/01/11 09:29:20;;;;;;;16.80;1.85;;;;;;;;;;4963155;28;20050;-69
2023/01/11 09:31:47;;;;;;;26.70;2.47;;;;;;;;;;4962915;28;20066;-69
2023/01/11 09:34:15;;;;;;;27.77;2.28;;;;;;;;;;4968274;28;20055;-69
2023/01/11 09:36:43;;;;;;;27.13;2.92;;;;;;;;;;4964154;28;20385;-69
2023/01/11 09:39:14;;;;;;;20.23;2.28;;;;;;;;;;4969465;28;20073;-69
2023/01/11 09:41:49;;;;;;;15.35;2.08;;;;;;;;;;4969275;28;20138;-69
2023/01/11 09:44:22;;;;;;;17.88;2.03;;;;;;;;;;4968946;28;20074;-70
2023/01/11 09:46:51;;;;;;;14.88;2.13;;;;;;;;;;4968954;28;20046;-69
2023/01/11 09:49:21;;;;;;;23.92;2.67;;;;;;;;;;4969697;28;20051;-69
2023/01/11 09:51:50;;;;;;;16.70;2.20;;;;;;;;;;4969616;28;20049;-69
2023/01/11 09:54:19;;;;;;;18.67;2.65;;;;;;;;;;4969379;28;20058;-70
2023/01/11 09:56:51;;;;;;;18.80;2.28;;;;;;;;;;4968560;28;20114;-69
2023/01/11 09:59:25;;;;;;;19.73;2.28;;;;;;;;;;4967399;28;20042;-69
2023/01/11 10:01:56;;;;;;;15.55;2.15;;;;;;;;;;4967717;28;20147;-69
2023/01/11 10:04:35;;;;;;;18.52;3.38;;;;;;;;;;4971350;28;20050;-69
2023/01/11 10:07:15;;;;;;;21.52;2.25;;;;;;;;;;4966248;28;20054;-69
2023/01/11 10:09:47;;;;;;;28.55;2.05;;;;;;;;;;4964387;28;20150;-69
2023/01/11 10:12:18;;;;;;;31.42;3.42;;;;;;;;;;4978189;28;20069;-69
2023/01/11 10:14:56;;;;;;;23.02;2.72;;;;;;;;;;4971158;28;20113;-69
2023/01/11 10:17:27;;;;;;;21.08;2.88;;;;;;;;;;4970606;28;20086;-69
2023/01/11 10:19:56;;;;;;;33.53;3.40;;;;;;;;;;4970046;28;20475;-70
2023/01/11 10:22:26;;;;;;;28.25;3.05;;;;;;;;;;4968366;28;20051;-69
2023/01/11 10:24:58;;;;;;;22.15;2.88;;;;;;;;;;4970415;28;20046;-69
2023/01/11 10:27:28;;;;;;;28.45;4.47;;;;;;;;;;4984742;28;20055;-69
2023/01/11 10:30:12;;;;;;;20.13;2.67;;;;;;;;;;4969486;28;20049;-69
2023/01/11 10:32:58;;;;;;;;;;;;;;;;;;4971001;28;20050;-69
2023/01/11 10:35:44;;;;;;;14.75;2.22;;;;;;;;;;4967430;28;19928;-69
2023/01/11 10:38:31;;;;;;;19.70;2.63;;;;;;;;;;4966632;28;20051;-69
2023/01/11 10:41:05;;;;;;;24.85;3.00;;;;;;;;;;4960908;28;20047;-69
2023/01/11 10:43:34;;;;;;;25.73;3.72;;;;;;;;;;4965381;28;20050;-69
2023/01/11 10:46:06;;;;;;;20.42;4.00;;;;;;;;;;4960781;28;20061;-69
2023/01/11 10:48:35;;;;;;;21.27;3.30;;;;;;;;;;4961917;28;20057;-69
2023/01/11 10:51:05;;;;;;;25.67;2.85;;;;;;;;;;4964589;28;20053;-69
2023/01/11 10:53:36;;;;;;;17.10;2.90;;;;;;;;;;4963295;28;20062;-69
2023/01/11 10:56:08;;;;;;;25.27;3.00;;;;;;;;;;4956622;28;20054;-69
2023/01/11 10:58:45;;;;;;;30.33;3.03;;;;;;;;;;4963921;28;20072;-69
2023/01/11 11:01:23;;;;;;;23.88;3.25;;;;;;;;;;4968042;28;20498;-69
2023/01/11 11:03:57;;;;;;;19.75;2.85;;;;;;;;;;4968563;28;20127;-69
2023/01/11 11:06:32;;;;;;;28.58;4.00;;;;;;;;;;4969091;28;20083;-69
2023/01/11 11:09:02;;;;;;;22.15;2.72;;;;;;;;;;4967835;28;20084;-69
2023/01/11 11:11:31;;;;;;;24.98;3.30;;;;;;;;;;4968437;28;20059;-69
2023/01/11 11:14:03;;;;;;;27.80;3.40;;;;;;;;;;4971111;28;20134;-69
2023/01/11 11:16:37;;;;;;;30.20;3.90;;;;;;;;;;4965824;28;20426;-69
2023/01/11 11:19:04;;;;;;;28.65;3.85;;;;;;;;;;4969117;28;20059;-69
2023/01/11 11:21:34;;;;;;;30.48;4.03;;;;;;;;;;4970111;28;20124;-69
2023/01/11 11:24:03;;;;;;;28.75;3.97;;;;;;;;;;4965620;28;20405;-69
2023/01/11 11:26:36;;;;;;;22.92;3.28;;;;;;;;;;4959761;28;20043;-69
2023/01/11 11:29:04;;;;;;;18.50;2.97;;;;;;;;;;4966457;28;20117;-68
2023/01/11 11:31:32;;;;;;;22.40;2.97;;;;;;;;;;4958949;28;20050;-69
2023/01/11 11:34:06;;;;;;;34.53;3.70;;;;;;;;;;4965581;28;20062;-69
2023/01/11 11:36:33;;;;;;;;;;;;;;;;;;4968555;28;20051;-69
2023/01/11 11:39:09;;;;;;;32.88;3.70;;;;;;;;;;4965516;28;19930;-69
2023/01/11 11:41:46;;;;;;;26.80;3.50;;;;;;;;;;4963578;28;20251;-69
2023/01/11 11:44:16;;;;;;;31.67;4.20;;;;;;;;;;4962482;28;20109;-69
2023/01/11 11:46:56;;;;;;;20.73;3.17;;;;;;;;;;4966970;28;20485;-68
2023/01/11 11:49:25;;;;;;;21.27;2.80;;;;;;;;;;4960104;28;20055;-69
2023/01/11 11:51:53;;;;;;;32.03;3.85;;;;;;;;;;4963889;28;20398;-69
2023/01/11 11:54:22;;;;;;;27.77;3.72;;;;;;;;;;4969108;28;20051;-69
2023/01/11 11:56:50;;;;;;;20.65;3.40;;;;;;;;;;4968779;28;20051;-69
2023/01/11 11:59:19;;;;;;;33.67;4.13;;;;;;;;;;4968959;28;20050;-69
2023/01/11 12:01:47;;;;;;;22.83;3.40;;;;;;;;;;4954797;28;20055;-69
2023/01/11 12:04:15;;;;;;;24.95;3.05;;;;;;;;;;4965002;28;20086;-68
2023/01/11 12:06:44;;;;;;;24.98;3.55;;;;;;;;;;4959987;28;20066;-69
2023/01/11 12:09:13;;;;;;;29.10;3.88;;;;;;;;;;4968158;28;20097;-68
2023/01/11 12:11:41;;;;;;;24.77;3.30;;;;;;;;;;4961542;28;20062;-69
2023/01/11 12:14:17;;;;;;;27.85;3.45;;;;;;;;;;4965866;28;20050;-69
2023/01/11 12:16:45;;;;;;;31.42;3.80;;;;;;;;;;4965797;28;20043;-69
2023/01/11 12:19:25;;;;;;;32.20;4.22;;;;;;;;;;4964417;28;20570;-69
2023/01/11 12:21:54;;;;;;;25.90;3.60;;;;;;;;;;4958867;28;21499;-69
2023/01/11 12:24:22;;;;;;;28.33;3.70;;;;;;;;;;4961398;28;20074;-68
2023/01/11 12:26:56;;;;;;;35.50;4.35;;;;;;;;;;4965350;28;20051;-68
2023/01/11 12:29:36;;;;;;;31.20;4.18;;;;;;;;;;4967155;28;20061;-68
2023/01/11 12:32:13;;;;;;;26.98;3.33;;;;;;;;;;4961240;28;20485;-69
2023/01/11 12:34:58;;;;;;;29.63;3.75;;;;;;;;;;4955014;28;20062;-69
2023/01/11 12:37:34;;;;;;;30.95;3.72;;;;;;;;;;4954417;28;20058;-68
2023/01/11 12:40:10;;;;;;;29.60;3.70;;;;;;;;;;4961322;28;20066;-69
2023/01/11 12:42:43;;;;;;;29.35;4.70;;;;;;;;;;4968084;28;20047;-69
2023/01/11 12:45:16;;;;;;;26.80;3.97;;;;;;;;;;4969644;28;20046;-68
2023/01/11 12:47:54;;;;;;;32.50;3.92;;;;;;;;;;4973792;28;20118;-68
2023/01/11 12:50:23;;;;;;;33.63;4.20;;;;;;;;;;4972332;28;20063;-69
2023/01/11 12:53:06;;;;;;;39.30;4.72;;;;;;;;;;4972945;28;20046;-69
2023/01/11 12:55:41;;;;;;;34.30;4.53;;;;;;;;;;4966265;28;20059;-68
2023/01/11 12:58:14;;;;;;;37.40;4.72;;;;;;;;;;4972997;28;20290;-69
2023/01/11 13:00:52;;;;;;;46.53;4.57;;;;;;;;;;4968980;28;20053;-68
2023/01/11 13:03:37;;;;;;;36.25;4.82;;;;;;;;;;4971985;28;20054;-68
2023/01/11 13:06:08;;;;;;;28.55;4.25;;;;;;;;;;4943075;28;20046;-69
2023/01/11 13:08:45;;;;;;;31.50;4.70;;;;;;;;;;4968745;28;20054;-69
2023/01/11 13:11:33;;;;;;;40.30;4.97;;;;;;;;;;4969663;28;20129;-69
2023/01/11 13:14:04;;;;;;;33.25;4.82;;;;;;;;;;4970615;28;20562;-69
2023/01/11 13:16:33;;;;;;;37.20;4.45;;;;;;;;;;4969451;28;20070;-68
2023/01/11 13:19:04;;;;;;;39.78;4.68;;;;;;;;;;4971849;28;20087;-69
2023/01/11 13:21:33;;;;;;;36.38;5.03;;;;;;;;;;4968618;28;20486;-68
2023/01/11 13:24:06;;;;;;;39.90;4.50;;;;;;;;;;4972159;28;20043;-68
2023/01/11 13:26:36;;;;;;;44.10;5.00;;;;;;;;;;4966009;28;20043;-69
2023/01/11 13:29:05;;;;;;;35.17;4.55;;;;;;;;;;4969991;28;20062;-69
2023/01/11 13:31:32;;;;;;;37.70;4.53;;;;;;;;;;4963175;28;20043;-68
2023/01/11 13:34:03;;;;;;;37.78;5.90;;;;;;;;;;4967721;28;20425;-68
2023/01/11 13:36:33;;;;;;;34.60;4.80;;;;;;;;;;4968834;28;20055;-68
2023/01/11 13:39:02;;;;;;;33.28;4.50;;;;;;;;;;4969766;28;20065;-68
2023/01/11 13:41:33;;;;;;;31.27;4.97;;;;;;;;;;4966485;28;20498;-68
2023/01/11 13:44:03;;;;;;;45.58;5.22;;;;;;;;;;4961469;28;20082;-69
2023/01/11 13:46:40;;;;;;;36.08;5.60;;;;;;;;;;4967408;28;20493;-68
2023/01/11 13:49:12;;;;;;;34.22;3.75;;;;;;;;;;4962698;28;20054;-68
2023/01/11 13:51:43;;;;;;;28.15;4.43;;;;;;;;;;4966703;28;20058;-68
2023/01/11 13:54:13;;;;;;;38.83;5.10;;;;;;;;;;4970425;28;20068;-68
2023/01/11 13:56:42;;;;;;;38.35;4.55;;;;;;;;;;4963282;28;20055;-69
2023/01/11 13:59:12;;;;;;;35.83;4.55;;;;;;;;;;4967328;28;20058;-68
2023/01/11 14:01:43;;;;;;;33.90;3.95;;;;;;;;;;4964533;28;20054;-69
2023/01/11 14:04:14;;;;;;;35.08;5.53;;;;;;;;;;4964177;28;20051;-68
2023/01/11 14:07:02;;;;;;;36.65;5.05;;;;;;;;;;4966669;28;20414;-69
2023/01/11 14:09:47;;;;;;;31.40;3.72;;;;;;;;;;4956658;28;20061;-68
2023/01/11 14:12:20;;;;;;;27.83;4.25;;;;;;;;;;4964834;28;20051;-69
2023/01/11 14:15:05;;;;;;;31.38;4.47;;;;;;;;;;4968378;28;20043;-68
2023/01/11 14:17:50;;;;;;;30.98;4.10;;;;;;;;;;4963219;28;20134;-68
2023/01/11 14:20:21;;;;;;;29.73;3.75;;;;;;;;;;4959241;28;20058;-68
2023/01/11 14:22:52;;;;;;;26.65;3.65;;;;;;;;;;4965257;28;20038;-68
2023/01/11 14:25:22;;;;;;;30.13;4.07;;;;;;;;;;4967870;28;20055;-68
2023/01/11 14:28:10;;;;;;;36.92;5.47;;;;;;;;;;4965801;28;20050;-69
2023/01/11 14:30:46;;;;;;;19.10;3.65;;;;;;;;;;4960460;28;20051;-68
2023/01/11 14:33:29;;;;;;;30.65;4.22;;;;;;;;;;4961676;28;20073;-69
2023/01/11 14:36:11;;;;;;;31.00;3.85;;;;;;;;;;4938723;28;20043;-68
2023/01/11 14:38:46;;;;;;;40.60;4.75;;;;;;;;;;4966181;28;20051;-68
2023/01/11 14:41:27;;;;;;;28.88;3.70;;;;;;;;;;4959150;28;20061;-68
2023/01/11 14:44:00;;;;;;;31.25;4.43;;;;;;;;;;4955943;28;20106;-68
2023/01/11 14:46:51;;;;;;;37.93;4.53;;;;;;;;;;4960155;28;20053;-68
2023/01/11 14:49:24;;;;;;;28.20;3.85;;;;;;;;;;4959637;28;20390;-68
2023/01/11 14:51:56;;;;;;;28.10;3.63;;;;;;;;;;4958302;28;20051;-68
2023/01/11 14:54:26;;;;;;;29.52;3.95;;;;;;;;;;4958958;28;20516;-68
2023/01/11 14:56:54;;;;;;;31.08;3.70;;;;;;;;;;4965256;28;20050;-69
2023/01/11 14:59:23;;;;;;;38.63;4.72;;;;;;;;;;4959010;28;20056;-68
2023/01/11 15:02:09;;;;;;;31.80;3.72;;;;;;;;;;4966159;28;20047;-68
2023/01/11 15:04:39;;;;;;;28.42;3.72;;;;;;;;;;4966723;28;20051;-68
2023/01/11 15:07:21;;;;;;;30.73;4.97;;;;;;;;;;4960643;28;20482;-68
2023/01/11 15:09:49;;;;;;;32.78;3.83;;;;;;;;;;4962384;28;20055;-68